createdAt,value
2022-12-31T00:01:10.876Z,96624.06
2022-12-31T00:03:57.721Z,96620.16
2022-12-31T00:06:43.584Z,96625.94
2022-12-31T00:09:29.544Z,96605.94
2022-12-31T00:12:15.324Z,96641.84
2022-12-31T00:15:01.099Z,96628.09
2022-12-31T00:17:47.106Z,96629.50
2022-12-31T00:20:33.207Z,96640.56
2022-12-31T00:23:19.466Z,96633.06
2022-12-31T00:26:11.917Z,96660.56
2022-12-31T00:28:58.993Z,96653.69
2022-12-31T00:31:46.282Z,96652.69
2022-12-31T00:34:32.102Z,96656.53
2022-12-31T00:37:17.948Z,96639.72
2022-12-31T00:40:04.681Z,96644.34
2022-12-31T00:42:51.007Z,96664.69
2022-12-31T00:45:37.013Z,96667.38
2022-12-31T00:48:23.135Z,96673.53
2022-12-31T00:51:11.672Z,96676.66
2022-12-31T00:53:57.820Z,96683.38
2022-12-31T00:56:43.711Z,96683.97
2022-12-31T00:59:29.628Z,96682.97
2022-12-31T01:02:15.574Z,96681.59
2022-12-31T01:05:01.937Z,96676.41
2022-12-31T01:07:47.812Z,96670.91
2022-12-31T01:10:52.251Z,96680.06
2022-12-31T01:13:38.167Z,96671.50
2022-12-31T01:16:26.753Z,96688.75
2022-12-31T01:19:34.429Z,96690.75
2022-12-31T01:22:20.229Z,96694.41
2022-12-31T01:25:06.795Z,96694.69
2022-12-31T01:27:52.688Z,96694.53
2022-12-31T01:30:40.168Z,96688.34
2022-12-31T01:33:26.243Z,96687.53
2022-12-31T01:36:21.857Z,96691.84
2022-12-31T01:39:11.134Z,96681.50
2022-12-31T01:41:58.061Z,96686.41
2022-12-31T01:44:55.434Z,96687.94
2022-12-31T01:47:49.066Z,96683.06
2022-12-31T01:50:36.494Z,96697.19
2022-12-31T01:53:22.416Z,96697.19
2022-12-31T01:56:08.232Z,96696.34
2022-12-31T01:58:56.032Z,96707.88
2022-12-31T02:01:42.540Z,96701.69
2022-12-31T02:04:29.154Z,96707.59
2022-12-31T02:07:15.181Z,96688.28
2022-12-31T02:10:01.365Z,96692.16
2022-12-31T02:12:48.307Z,96702.53
2022-12-31T02:15:40.326Z,96697.19
2022-12-31T02:18:38.773Z,96693.28
2022-12-31T02:21:45.465Z,96699.06
2022-12-31T02:24:58.990Z,96712.38
2022-12-31T02:27:49.740Z,96709.31
2022-12-31T02:30:37.411Z,96710.16
2022-12-31T02:33:30.142Z,96709.59
2022-12-31T02:36:21.132Z,96705.25
2022-12-31T02:39:07.816Z,96700.63
2022-12-31T02:41:53.983Z,96696.59
2022-12-31T02:44:41.874Z,96689.28
2022-12-31T02:47:42.758Z,96710.03
2022-12-31T02:51:00.637Z,96707.09
2022-12-31T02:53:53.057Z,96719.16
2022-12-31T02:57:14.154Z,96716.78
2022-12-31T03:00:33.219Z,96715.13
2022-12-31T03:03:20.629Z,96718.47
2022-12-31T03:06:08.415Z,96713.16
2022-12-31T03:09:12.821Z,96709.13
2022-12-31T03:12:18.054Z,96719.78
2022-12-31T03:15:06.779Z,96720.19
2022-12-31T03:18:11.996Z,96721.47
2022-12-31T03:21:16.229Z,96711.06
2022-12-31T03:24:20.955Z,96718.22
2022-12-31T03:27:06.751Z,96708.84
2022-12-31T03:29:52.901Z,96721.16
2022-12-31T03:32:39.139Z,96713.47
2022-12-31T03:35:26.988Z,96721.59
2022-12-31T03:38:13.769Z,96722.56
2022-12-31T03:40:59.716Z,96709.41
2022-12-31T03:43:45.805Z,96726.50
2022-12-31T03:46:31.643Z,96735.06
2022-12-31T03:49:17.612Z,96726.66
2022-12-31T03:52:03.650Z,96732.53
2022-12-31T03:54:49.354Z,96724.81
2022-12-31T03:57:35.255Z,96718.41
2022-12-31T04:00:21.922Z,96742.22
2022-12-31T04:03:08.096Z,96737.16
2022-12-31T04:05:55.551Z,96747.41
2022-12-31T04:08:41.357Z,96744.47
2022-12-31T04:11:27.377Z,96736.47
2022-12-31T04:14:13.171Z,96734.06
2022-12-31T04:16:59.296Z,96745.03
2022-12-31T04:19:45.270Z,96725.25
2022-12-31T04:22:31.066Z,96748.94
2022-12-31T04:25:16.829Z,96761.97
2022-12-31T04:28:03.483Z,96756.94
2022-12-31T04:30:49.458Z,96750.91
2022-12-31T04:33:35.752Z,96760.28
2022-12-31T04:36:22.034Z,96760.59
2022-12-31T04:39:08.060Z,96766.34
2022-12-31T04:41:54.398Z,96754.69
2022-12-31T04:44:40.367Z,96760.72
2022-12-31T04:47:26.367Z,96754.69
2022-12-31T04:50:12.277Z,96761.97
2022-12-31T04:52:57.962Z,96755.13
2022-12-31T04:55:45.413Z,96754.81
2022-12-31T04:58:31.684Z,96753.28
2022-12-31T05:01:17.988Z,96768.84
2022-12-31T05:04:04.706Z,96769.84
2022-12-31T05:06:50.803Z,96772.75
2022-12-31T05:09:36.868Z,96785.38
2022-12-31T05:12:22.959Z,96790.31
2022-12-31T05:15:09.415Z,96794.06
2022-12-31T05:17:55.299Z,96795.16
2022-12-31T05:20:41.219Z,96797.97
2022-12-31T05:23:27.477Z,96812.13
2022-12-31T05:26:13.515Z,96796.88
2022-12-31T05:29:00.510Z,96804.56
2022-12-31T05:31:46.215Z,96801.63
2022-12-31T05:34:32.081Z,96803.88
2022-12-31T05:37:18.119Z,96803.88
2022-12-31T05:40:04.735Z,96812.00
2022-12-31T05:42:50.899Z,96823.59
2022-12-31T05:45:37.186Z,96807.78
2022-12-31T05:48:23.096Z,96820.81
2022-12-31T05:51:08.826Z,96819.00
2022-12-31T05:53:54.652Z,96816.59
2022-12-31T05:56:40.973Z,96824.19
2022-12-31T05:59:26.855Z,96830.34
2022-12-31T06:02:12.835Z,96810.84
2022-12-31T06:04:58.461Z,96829.06
2022-12-31T06:07:44.574Z,96825.56
2022-12-31T06:10:30.401Z,96836.66
2022-12-31T06:13:16.485Z,96826.56
2022-12-31T06:16:07.351Z,96842.53
2022-12-31T06:18:53.737Z,96846.03
2022-12-31T06:21:40.040Z,96841.81
2022-12-31T06:24:26.624Z,96852.63
2022-12-31T06:27:12.924Z,96856.13
2022-12-31T06:29:59.016Z,96858.22
2022-12-31T06:32:45.875Z,96831.72
2022-12-31T06:35:31.898Z,96857.97
2022-12-31T06:38:17.818Z,96838.16
2022-12-31T06:41:04.839Z,96850.94
2022-12-31T06:43:50.665Z,96847.84
2022-12-31T06:46:36.706Z,96849.53
2022-12-31T06:49:22.562Z,96863.28
2022-12-31T06:52:08.515Z,96857.25
2022-12-31T06:54:54.870Z,96860.63
2022-12-31T06:57:41.258Z,96859.78
2022-12-31T07:00:27.831Z,96865.53
2022-12-31T07:03:19.623Z,96866.38
2022-12-31T07:06:28.371Z,96839.13
2022-12-31T07:09:40.249Z,96857.56
2022-12-31T07:12:38.214Z,96865.56
2022-12-31T07:15:33.338Z,96866.56
2022-12-31T07:18:25.634Z,96862.75
2022-12-31T07:21:13.764Z,96873.28
2022-12-31T07:24:00.027Z,96879.16
2022-12-31T07:26:58.038Z,96893.06
2022-12-31T07:30:14.468Z,96873.72
2022-12-31T07:33:15.526Z,96897.16
2022-12-31T07:36:26.380Z,96896.47
2022-12-31T07:39:25.876Z,96888.47
2022-12-31T07:42:37.801Z,96882.72
2022-12-31T07:45:42.288Z,96900.13
2022-12-31T07:48:29.301Z,96899.69
2022-12-31T07:51:15.765Z,96896.78
2022-12-31T07:54:01.682Z,96902.13
2022-12-31T07:56:48.273Z,96913.22
2022-12-31T07:59:51.921Z,96904.94
2022-12-31T08:02:57.168Z,96906.91
2022-12-31T08:06:24.929Z,96922.91
2022-12-31T08:09:37.341Z,96921.53
2022-12-31T08:12:23.638Z,96932.31
2022-12-31T08:15:15.044Z,96910.97
2022-12-31T08:18:01.082Z,96916.47
2022-12-31T08:21:10.761Z,96923.22
2022-12-31T08:24:22.633Z,96918.56
2022-12-31T08:27:28.420Z,96915.78
2022-12-31T08:30:16.844Z,96911.25
2022-12-31T08:33:11.345Z,96919.94
2022-12-31T08:36:16.216Z,96922.06
2022-12-31T08:39:13.963Z,96909.16
2022-12-31T08:42:03.517Z,96906.03
2022-12-31T08:45:12.297Z,96908.84
2022-12-31T08:48:35.243Z,96915.28
2022-12-31T08:51:23.863Z,96918.94
2022-12-31T08:54:13.365Z,96909.09
2022-12-31T08:57:13.427Z,96925.38
2022-12-31T09:00:07.485Z,96916.75
2022-12-31T09:03:31.182Z,96918.75
2022-12-31T09:07:00.332Z,96929.69
2022-12-31T09:09:46.159Z,96925.03
2022-12-31T09:12:35.011Z,96923.59
2022-12-31T09:15:21.001Z,96929.75
2022-12-31T09:18:08.863Z,96924.22
2022-12-31T09:20:54.864Z,96916.72
2022-12-31T09:23:41.299Z,96917.53
2022-12-31T09:26:49.012Z,96918.84
2022-12-31T09:29:41.556Z,96915.50
2022-12-31T09:32:40.433Z,96919.56
2022-12-31T09:35:26.387Z,96924.97
2022-12-31T09:38:28.898Z,96916.97
2022-12-31T09:41:36.949Z,96923.53
2022-12-31T09:45:10.340Z,96921.53
2022-12-31T09:48:36.241Z,96886.09
2022-12-31T09:51:33.149Z,96901.75
2022-12-31T09:54:22.028Z,96909.41
2022-12-31T09:57:08.069Z,96880.69
2022-12-31T10:00:11.062Z,96886.53
2022-12-31T10:03:00.111Z,96877.28
2022-12-31T10:05:53.173Z,96868.72
2022-12-31T10:09:06.976Z,96869.63
2022-12-31T10:12:20.624Z,96879.94
2022-12-31T10:15:34.711Z,96857.66
2022-12-31T10:18:59.764Z,96847.97
2022-12-31T10:22:00.892Z,96850.91
2022-12-31T10:25:20.693Z,96852.97
2022-12-31T10:28:30.973Z,96849.19
2022-12-31T10:31:16.913Z,96857.78
2022-12-31T10:34:13.699Z,96860.81
2022-12-31T10:37:20.462Z,96846.91
2022-12-31T10:40:09.432Z,96846.81
2022-12-31T10:42:55.202Z,96846.38
2022-12-31T10:46:19.144Z,96843.53
2022-12-31T10:49:24.209Z,96835.22
2022-12-31T10:52:28.918Z,96836.13
2022-12-31T10:55:39.298Z,96831.94
2022-12-31T10:58:52.791Z,96825.25
2022-12-31T11:01:57.273Z,96826.63
2022-12-31T11:05:24.132Z,96828.28
2022-12-31T11:08:33.900Z,96823.09
2022-12-31T11:11:19.786Z,96818.44
2022-12-31T11:14:23.828Z,96820.94
2022-12-31T11:17:16.593Z,96809.38
2022-12-31T11:20:27.557Z,96798.16
2022-12-31T11:23:37.674Z,96830.03
2022-12-31T11:26:32.700Z,96829.88
2022-12-31T11:29:37.683Z,96811.09
2022-12-31T11:32:32.464Z,96811.06
2022-12-31T11:35:41.598Z,96784.09
2022-12-31T11:38:41.256Z,96797.66
2022-12-31T11:41:44.003Z,96796.13
2022-12-31T11:44:48.960Z,96809.06
2022-12-31T11:48:29.817Z,96796.50
2022-12-31T11:51:28.237Z,96803.34
2022-12-31T11:54:24.908Z,96805.84
2022-12-31T11:57:16.663Z,96805.16
2022-12-31T12:00:23.835Z,96793.44
2022-12-31T12:03:11.008Z,96794.41
2022-12-31T12:05:57.684Z,96792.56
2022-12-31T12:08:44.561Z,96786.69
2022-12-31T12:11:33.300Z,96772.94
2022-12-31T12:14:20.175Z,96769.88
2022-12-31T12:17:15.789Z,96751.63
2022-12-31T12:20:05.010Z,96780.44
2022-12-31T12:22:53.497Z,96770.19
2022-12-31T12:25:42.277Z,96762.63
2022-12-31T12:28:30.854Z,96771.13
2022-12-31T12:31:22.728Z,96763.91
2022-12-31T12:34:25.119Z,96759.22
2022-12-31T12:37:23.945Z,96757.34
2022-12-31T12:40:21.819Z,96761.13
2022-12-31T12:43:23.248Z,96757.03
2022-12-31T12:46:32.140Z,96765.06
2022-12-31T12:49:29.819Z,96771.38
2022-12-31T12:52:22.193Z,96766.06
2022-12-31T12:55:17.159Z,96744.84
2022-12-31T12:58:26.571Z,96758.28
2022-12-31T13:01:37.945Z,96754.00
2022-12-31T13:04:34.591Z,96736.53
2022-12-31T13:07:45.722Z,96737.75
2022-12-31T13:10:42.400Z,96735.88
2022-12-31T13:13:38.114Z,96729.09
2022-12-31T13:16:42.604Z,96724.53
2022-12-31T13:19:34.216Z,96732.56
2022-12-31T13:22:27.607Z,96742.97
2022-12-31T13:25:43.249Z,96696.88
2022-12-31T13:28:30.910Z,96727.41
2022-12-31T13:31:30.294Z,96722.84
2022-12-31T13:34:21.488Z,96687.25
2022-12-31T13:37:37.819Z,96727.22
2022-12-31T13:40:46.670Z,96727.59
2022-12-31T13:43:38.476Z,96728.63
2022-12-31T13:46:44.010Z,96738.63
2022-12-31T13:49:34.912Z,96738.09
2022-12-31T13:52:36.814Z,96754.84
2022-12-31T13:55:31.636Z,96746.13
2022-12-31T13:58:31.704Z,96752.31
2022-12-31T14:01:32.093Z,96751.22
2022-12-31T14:04:59.508Z,96761.41
2022-12-31T14:07:56.170Z,96747.59
2022-12-31T14:11:05.509Z,96753.25
2022-12-31T14:14:00.376Z,96767.16
2022-12-31T14:16:53.964Z,96782.19
2022-12-31T14:20:01.614Z,96716.19
2022-12-31T14:23:20.078Z,96786.47
2022-12-31T14:26:07.556Z,96780.19
2022-12-31T14:29:09.231Z,96781.78
2022-12-31T14:32:03.545Z,96799.81
2022-12-31T14:34:53.015Z,96799.13
2022-12-31T14:37:41.854Z,96800.59
2022-12-31T14:40:51.162Z,96801.69
2022-12-31T14:43:58.172Z,96801.91
2022-12-31T14:47:00.157Z,96796.53
2022-12-31T14:49:58.143Z,96773.63
2022-12-31T14:52:49.170Z,96774.84
2022-12-31T14:55:37.101Z,96784.50
2022-12-31T14:58:29.802Z,96799.56
2022-12-31T15:01:15.910Z,96806.69
2022-12-31T15:04:01.679Z,96798.16
2022-12-31T15:06:55.319Z,96809.41
2022-12-31T15:09:54.552Z,96822.03
2022-12-31T15:12:58.841Z,96835.53
2022-12-31T15:16:08.442Z,96835.03
2022-12-31T15:19:19.364Z,96843.19
2022-12-31T15:22:17.377Z,96830.53
2022-12-31T15:25:04.644Z,96846.78
2022-12-31T15:27:50.705Z,96802.44
2022-12-31T15:30:44.925Z,96827.53
2022-12-31T15:33:40.233Z,96830.41
2022-12-31T15:36:29.723Z,96858.34
2022-12-31T15:39:16.924Z,96848.63
2022-12-31T15:42:36.672Z,96856.25
2022-12-31T15:45:17.286Z,96860.56
2022-12-31T15:48:08.574Z,96855.03
2022-12-31T15:50:58.086Z,96859.78
2022-12-31T15:53:52.449Z,96872.94
2022-12-31T15:56:45.322Z,96878.34
2022-12-31T15:59:31.780Z,96858.06
2022-12-31T16:02:23.812Z,96850.72
2022-12-31T16:05:25.337Z,96869.22
2022-12-31T16:08:19.848Z,96865.53
2022-12-31T16:11:07.988Z,96877.66
2022-12-31T16:13:54.989Z,96866.22
2022-12-31T16:16:51.825Z,96860.22
2022-12-31T16:19:46.249Z,96876.16
2022-12-31T16:22:39.670Z,96875.50
2022-12-31T16:25:31.114Z,96880.88
2022-12-31T16:28:28.410Z,96890.25
2022-12-31T16:31:17.715Z,96894.81
2022-12-31T16:34:12.841Z,96897.16
2022-12-31T16:37:07.596Z,96904.34
2022-12-31T16:39:56.736Z,96902.66
2022-12-31T16:42:44.579Z,96887.88
2022-12-31T16:45:35.853Z,96902.25
2022-12-31T16:48:22.130Z,96900.59
2022-12-31T16:51:16.797Z,96888.94
2022-12-31T16:54:03.704Z,96909.91
2022-12-31T16:56:50.053Z,96913.41
2022-12-31T16:59:41.647Z,96924.28
2022-12-31T17:02:36.515Z,96910.28
2022-12-31T17:05:26.410Z,96922.22
2022-12-31T17:08:29.669Z,96915.81
2022-12-31T17:11:31.362Z,96925.16
2022-12-31T17:14:20.060Z,96925.47
2022-12-31T17:17:07.584Z,96934.16
2022-12-31T17:19:58.528Z,96925.88
2022-12-31T17:22:44.820Z,96943.97
2022-12-31T17:25:32.896Z,96918.91
2022-12-31T17:28:24.262Z,96941.25
2022-12-31T17:31:32.139Z,96949.22
2022-12-31T17:34:21.709Z,96944.50
2022-12-31T17:37:11.577Z,96964.78
2022-12-31T17:40:40.583Z,96948.81
2022-12-31T17:43:11.540Z,96957.16
2022-12-31T17:45:57.355Z,96936.28
2022-12-31T17:48:45.192Z,96951.03
2022-12-31T17:51:30.963Z,96943.28
2022-12-31T17:54:17.643Z,96957.31
2022-12-31T17:57:03.886Z,96946.50
2022-12-31T17:59:49.933Z,96967.28
2022-12-31T18:02:35.966Z,96980.97
2022-12-31T18:05:23.712Z,96974.78
2022-12-31T18:08:09.546Z,96977.75
2022-12-31T18:10:55.732Z,96957.41
2022-12-31T18:13:41.895Z,96967.13
2022-12-31T18:16:28.172Z,96975.47
2022-12-31T18:19:37.984Z,96967.56
2022-12-31T18:22:21.817Z,96969.19
2022-12-31T18:25:10.293Z,96975.22
2022-12-31T18:27:56.133Z,96971.94
2022-12-31T18:30:42.469Z,96978.28
2022-12-31T18:33:34.165Z,96985.31
2022-12-31T18:36:22.057Z,96978.03
2022-12-31T18:39:08.177Z,96978.78
2022-12-31T18:41:54.290Z,96957.59
2022-12-31T18:44:41.094Z,96979.63
2022-12-31T18:47:26.948Z,96980.38
2022-12-31T18:50:16.998Z,96982.03
2022-12-31T18:53:03.053Z,96949.66
2022-12-31T18:55:54.556Z,96978.31
2022-12-31T18:58:41.104Z,96989.41
2022-12-31T19:01:32.495Z,96976.00
2022-12-31T19:04:27.242Z,96999.44
2022-12-31T19:07:14.237Z,97002.72
2022-12-31T19:10:00.435Z,96979.97
2022-12-31T19:12:46.523Z,96975.78
2022-12-31T19:15:42.534Z,97005.28
2022-12-31T19:18:28.336Z,97006.59
2022-12-31T19:21:19.813Z,96993.09
2022-12-31T19:24:20.500Z,96999.88
2022-12-31T19:27:06.415Z,96994.38
2022-12-31T19:29:52.185Z,96991.91
2022-12-31T19:32:37.939Z,96976.44
2022-12-31T19:35:24.545Z,96997.75
2022-12-31T19:38:25.099Z,96996.97
2022-12-31T19:41:19.190Z,96998.09
2022-12-31T19:44:05.438Z,96995.44
2022-12-31T19:46:51.275Z,96989.81
2022-12-31T19:49:37.277Z,96984.06
2022-12-31T19:52:23.049Z,96996.41
2022-12-31T19:55:13.019Z,96993.75
2022-12-31T19:57:58.937Z,96982.97
2022-12-31T20:00:51.567Z,96981.00
2022-12-31T20:03:40.888Z,96973.69
2022-12-31T20:06:26.663Z,96991.25
2022-12-31T20:09:12.705Z,96983.94
2022-12-31T20:11:59.007Z,96960.66
2022-12-31T20:14:44.862Z,96977.38
2022-12-31T20:17:31.116Z,96988.34
2022-12-31T20:20:17.391Z,96998.19
2022-12-31T20:23:03.591Z,96998.88
2022-12-31T20:26:01.962Z,96993.97
2022-12-31T20:28:48.157Z,96993.25
2022-12-31T20:31:34.456Z,97003.22
2022-12-31T20:34:20.392Z,96985.56
2022-12-31T20:37:06.118Z,96999.31
2022-12-31T20:39:52.207Z,97003.09
2022-12-31T20:42:40.156Z,97011.66
2022-12-31T20:45:27.069Z,97029.34
2022-12-31T20:48:13.761Z,96997.31
2022-12-31T20:50:59.803Z,97024.84
2022-12-31T20:53:51.440Z,97030.31
2022-12-31T20:56:39.376Z,97029.34
2022-12-31T20:59:27.480Z,97020.91
2022-12-31T21:02:39.187Z,97013.63
2022-12-31T21:05:29.030Z,97013.31
2022-12-31T21:08:16.632Z,97011.06
2022-12-31T21:11:03.193Z,96980.97
2022-12-31T21:13:49.588Z,97023.66
2022-12-31T21:16:38.061Z,97020.38
2022-12-31T21:19:24.328Z,97032.72
2022-12-31T21:22:10.528Z,97039.06
2022-12-31T21:24:56.510Z,97026.38
2022-12-31T21:27:42.194Z,97038.19
2022-12-31T21:30:28.015Z,97025.09
2022-12-31T21:33:13.936Z,97028.19
2022-12-31T21:36:04.545Z,97026.50
2022-12-31T21:38:51.326Z,97037.84
2022-12-31T21:41:52.673Z,97044.03
2022-12-31T21:44:38.402Z,97047.13
2022-12-31T21:47:47.679Z,97026.88
2022-12-31T21:50:34.332Z,97041.03
2022-12-31T21:53:26.288Z,97045.25
2022-12-31T21:56:18.218Z,97037.94
2022-12-31T21:59:23.262Z,97048.00
2022-12-31T22:02:28.982Z,97047.16
2022-12-31T22:05:23.177Z,97051.75
2022-12-31T22:08:11.298Z,97053.56
2022-12-31T22:10:57.377Z,97045.25
2022-12-31T22:13:43.068Z,97052.25
2022-12-31T22:16:29.028Z,97045.19
2022-12-31T22:19:14.773Z,97064.94
2022-12-31T22:22:00.836Z,97045.81
2022-12-31T22:24:46.678Z,97051.28
2022-12-31T22:27:32.506Z,97057.00
2022-12-31T22:30:18.610Z,97048.56
2022-12-31T22:33:04.385Z,97045.31
2022-12-31T22:36:05.352Z,97039.09
2022-12-31T22:38:55.521Z,97059.28
2022-12-31T22:41:41.736Z,97057.84
2022-12-31T22:44:27.776Z,97031.69
2022-12-31T22:47:13.631Z,97035.91
2022-12-31T22:49:59.905Z,97058.00
2022-12-31T22:52:45.862Z,97039.28
2022-12-31T22:55:31.876Z,97046.41
2022-12-31T22:58:19.874Z,97046.16
2022-12-31T23:01:17.084Z,97043.44
2022-12-31T23:04:04.038Z,97043.03
2022-12-31T23:06:50.049Z,97041.22
2022-12-31T23:09:54.588Z,97028.53
2022-12-31T23:12:40.781Z,97030.75
2022-12-31T23:15:45.184Z,97013.78
2022-12-31T23:18:49.793Z,97029.06
2022-12-31T23:21:55.052Z,97021.16
2022-12-31T23:24:41.275Z,97030.03
2022-12-31T23:27:27.511Z,97051.19
2022-12-31T23:30:13.649Z,97044.31
2022-12-31T23:32:59.582Z,97044.31
2022-12-31T23:35:45.800Z,97048.81
2022-12-31T23:38:31.771Z,97042.06
2022-12-31T23:41:20.171Z,97041.06
2022-12-31T23:44:06.312Z,97044.31
2022-12-31T23:46:52.509Z,97047.09
2022-12-31T23:49:38.252Z,97047.22
2022-12-31T23:52:24.234Z,97064.78
2022-12-31T23:55:10.160Z,97051.00
2022-12-31T23:57:56.034Z,97069.50
